Hamilton, KS

10:59 PM CDT on July 22, 2014 (GMT -0500)
Toronto, KS (KKSTORON4) Elev 971 ft | 37.80 °N, 95.95 °W | Change Station

Current weather conditions updated 4 minutes ago

Clear
Clear
84.1 °F
Feels Like 94 °F
N
0.0
Wind Variable Wind from South
Gusts 1.0 mph

Tomorrow is forecast to be Cooler than today.

Today
High -- | Low -- °F
--% Chance of Precip.
Yesterday
High -- | Low -- °F
Precip. -- in
6:19 AM 8:42 PM
Waning Crescent, 13% visible
Pressure 30.01 in
Visibility 10.0 miles
Clouds Clear
Heat Index 94 °F
Dew Point 77 °F
Humidity 79%
Rainfall 0.00 in
Snow Depth Not available.
UV 0 out of 12
Pollen 5.40 out of 12
Air Quality Not available.
Flu Activity Not available.
METAR KEMP 230353Z AUTO 20006KT 10SM CLR 27/22 A3005 RMK AO2 SLP163 T02670217

More Conditions Fewer Conditions

Pressure 30.01 in
Visibility 10.0 miles
Clouds Clear
Heat Index 94 °F
Dew Point 77 °F
Humidity 79%
Rainfall 0.00 in
Snow Depth Not available.
UV 0 out of 12
Pollen 5.40 out of 12
Air Quality Not available.
Flu Activity Not available.
METAR KEMP 230353Z AUTO 20006KT 10SM CLR 27/22 A3005 RMK AO2 SLP163 T02670217

More Conditions Fewer Conditions

10-Day Weather Forecast

Almanac

Astronomy

Jul. 22, 2014 Rise Set
Actual Time 6:19 AM CDT 8:42 PM CDT
Civil Twilight 5:49 AM CDT 9:12 PM CDT
Nautical Twilight 5:12 AM CDT 9:49 PM CDT
Astronomical Twilight 4:31 AM CDT 10:30 PM CDT
Moon 2:52 AM CDT (7/22) 5:21 PM CDT (7/22)
Length of Visible Light 15h 22m
Length of Day
14h 22m
Tomorrow will be 1m 33s shorter.
Waning Crescent, 13% of the Moon is Illuminated
Today
Waning Crescent
Jul 26
New
Aug 3
First Quarter
Aug 10
Full
Aug 17
Last Quarter

Today's Extremes

State Highs State Lows

Community

WunderPhotos

Upload Photos

1,736,488 photos uploaded!

Nearby

Snow Depth

Station Depth Elevation
No new snow has been reported.

Earthquake Activity

City Distance Mag. Time & Date
Helena, Oklahoma 140 miles 3.2 8:41 AM CDT
2014-07-18
Perry, Oklahoma 141 miles 2.8 8:37 PM CDT
2014-07-17
Caldwell, Kansas 107 miles 3.6 5:40 AM CDT
2014-07-17
Perry, Oklahoma 138 miles 2.5 2:34 AM CDT
2014-07-17
Minimum magnitude displayed is 2.5.

Coastal Water Temperatures

Place Temperature
No Stations Reporting

Nearby Weather Stations

Station Location Temp. Heat Index Dew Point Humidity Wind Precip. Elev Updated Type
Toronto, KS, Toronto, KS 84.1 °F 94 °F 77 °F 79% South  at  0.0 mph 0.00 in / hr 971 ft 10:55 PM CDT Normal
Gridley Fire Station, Gridley, KS 85.2 °F 95 °F 76 °F 75% SSW  at  2.0 mph 0.00 in / hr 1161 ft 10:55 PM CDT Normal
T-K Weather Station West Hartford, Kansa, Hartford, KS 82.9 °F 88 °F 72 °F 69% NE  at  0.0 mph - / hr 1129 ft 10:51 PM CDT Normal
HADS FALL RIVER LAKE NEAR FALL RIVER KS, Fall River, KS 85 °F 100 °F 81 °F 86% SSW  at  5 mph 0.00 in / hr 1020 ft 10:00 PM CDT MADIS

Show More Stations Show Fewer Stations